sensor_id;sensor_type;location;lat;lon;timestamp;P1;durP1;ratioP1;P2;durP2;ratioP2
2772;SDS011;1394;47.044;15.744;2023-09-08T00:01:03;24.40;;;2.03;;
2772;SDS011;1394;47.044;15.744;2023-09-08T00:03:31;24.67;;;1.80;;
2772;SDS011;1394;47.044;15.744;2023-09-08T00:05:58;24.90;;;2.10;;
2772;SDS011;1394;47.044;15.744;2023-09-08T00:08:26;24.90;;;2.20;;
2772;SDS011;1394;47.044;15.744;2023-09-08T00:10:58;25.43;;;2.17;;
2772;SDS011;1394;47.044;15.744;2023-09-08T00:13:25;24.80;;;2.40;;
2772;SDS011;1394;47.044;15.744;2023-09-08T00:15:52;24.87;;;2.10;;
2772;SDS011;1394;47.044;15.744;2023-09-08T00:18:19;24.50;;;1.93;;
2772;SDS011;1394;47.044;15.744;2023-09-08T00:20:46;24.80;;;2.07;;
2772;SDS011;1394;47.044;15.744;2023-09-08T00:23:13;24.40;;;1.93;;
2772;SDS011;1394;47.044;15.744;2023-09-08T00:25:41;25.07;;;2.20;;
2772;SDS011;1394;47.044;15.744;2023-09-08T00:28:09;24.87;;;2.20;;
2772;SDS011;1394;47.044;15.744;2023-09-08T00:30:36;24.70;;;1.83;;
2772;SDS011;1394;47.044;15.744;2023-09-08T00:33:04;24.30;;;1.90;;
2772;SDS011;1394;47.044;15.744;2023-09-08T00:35:33;24.60;;;2.00;;
2772;SDS011;1394;47.044;15.744;2023-09-08T00:38:03;25.00;;;2.03;;
2772;SDS011;1394;47.044;15.744;2023-09-08T00:40:44;25.00;;;2.00;;
2772;SDS011;1394;47.044;15.744;2023-09-08T00:43:13;24.47;;;2.07;;
2772;SDS011;1394;47.044;15.744;2023-09-08T00:45:42;24.30;;;2.07;;
2772;SDS011;1394;47.044;15.744;2023-09-08T00:48:09;24.40;;;1.67;;
2772;SDS011;1394;47.044;15.744;2023-09-08T00:50:37;24.50;;;2.00;;
2772;SDS011;1394;47.044;15.744;2023-09-08T00:53:05;24.60;;;2.00;;
2772;SDS011;1394;47.044;15.744;2023-09-08T00:55:33;24.57;;;1.80;;
2772;SDS011;1394;47.044;15.744;2023-09-08T00:58:03;24.70;;;2.07;;
2772;SDS011;1394;47.044;15.744;2023-09-08T01:00:34;24.60;;;1.70;;
2772;SDS011;1394;47.044;15.744;2023-09-08T01:03:01;24.57;;;2.20;;
2772;SDS011;1394;47.044;15.744;2023-09-08T01:05:29;24.70;;;2.17;;
2772;SDS011;1394;47.044;15.744;2023-09-08T01:07:56;24.60;;;2.30;;
2772;SDS011;1394;47.044;15.744;2023-09-08T01:10:23;24.63;;;2.10;;
2772;SDS011;1394;47.044;15.744;2023-09-08T01:12:53;25.17;;;2.03;;
2772;SDS011;1394;47.044;15.744;2023-09-08T01:15:20;24.60;;;2.17;;
2772;SDS011;1394;47.044;15.744;2023-09-08T01:17:49;24.57;;;1.90;;
2772;SDS011;1394;47.044;15.744;2023-09-08T01:20:17;24.77;;;2.33;;
2772;SDS011;1394;47.044;15.744;2023-09-08T01:22:55;24.77;;;2.13;;
2772;SDS011;1394;47.044;15.744;2023-09-08T01:25:27;26.40;;;1.90;;
2772;SDS011;1394;47.044;15.744;2023-09-08T01:27:55;25.27;;;2.40;;
2772;SDS011;1394;47.044;15.744;2023-09-08T01:30:25;25.30;;;2.50;;
2772;SDS011;1394;47.044;15.744;2023-09-08T01:32:53;25.03;;;2.30;;
2772;SDS011;1394;47.044;15.744;2023-09-08T01:35:20;24.60;;;2.20;;
2772;SDS011;1394;47.044;15.744;2023-09-08T01:37:48;25.53;;;2.40;;
2772;SDS011;1394;47.044;15.744;2023-09-08T01:40:16;24.30;;;1.80;;
2772;SDS011;1394;47.044;15.744;2023-09-08T01:42:47;24.60;;;2.30;;
2772;SDS011;1394;47.044;15.744;2023-09-08T01:45:15;24.97;;;2.00;;
2772;SDS011;1394;47.044;15.744;2023-09-08T01:47:42;24.83;;;1.97;;
2772;SDS011;1394;47.044;15.744;2023-09-08T01:50:09;25.13;;;2.43;;
2772;SDS011;1394;47.044;15.744;2023-09-08T01:52:37;25.43;;;2.20;;
2772;SDS011;1394;47.044;15.744;2023-09-08T01:55:15;25.00;;;2.10;;
2772;SDS011;1394;47.044;15.744;2023-09-08T01:57:42;24.93;;;2.10;;
2772;SDS011;1394;47.044;15.744;2023-09-08T02:00:11;26.50;;;2.40;;
2772;SDS011;1394;47.044;15.744;2023-09-08T02:02:40;24.70;;;2.27;;
2772;SDS011;1394;47.044;15.744;2023-09-08T02:05:08;24.80;;;2.50;;
2772;SDS011;1394;47.044;15.744;2023-09-08T02:07:35;24.70;;;1.90;;
2772;SDS011;1394;47.044;15.744;2023-09-08T02:10:02;25.90;;;2.30;;
2772;SDS011;1394;47.044;15.744;2023-09-08T02:12:29;24.37;;;2.00;;
2772;SDS011;1394;47.044;15.744;2023-09-08T02:14:56;24.67;;;2.10;;
2772;SDS011;1394;47.044;15.744;2023-09-08T02:17:26;25.40;;;2.53;;
2772;SDS011;1394;47.044;15.744;2023-09-08T02:19:54;24.20;;;2.00;;
2772;SDS011;1394;47.044;15.744;2023-09-08T02:22:21;24.70;;;2.10;;
2772;SDS011;1394;47.044;15.744;2023-09-08T02:24:48;24.67;;;2.13;;
2772;SDS011;1394;47.044;15.744;2023-09-08T02:27:17;24.80;;;1.97;;
2772;SDS011;1394;47.044;15.744;2023-09-08T02:29:44;24.60;;;1.80;;
2772;SDS011;1394;47.044;15.744;2023-09-08T02:32:14;24.90;;;2.33;;
2772;SDS011;1394;47.044;15.744;2023-09-08T02:34:42;24.53;;;1.83;;
2772;SDS011;1394;47.044;15.744;2023-09-08T02:37:09;26.80;;;2.20;;
2772;SDS011;1394;47.044;15.744;2023-09-08T02:39:38;24.50;;;2.00;;
2772;SDS011;1394;47.044;15.744;2023-09-08T02:42:05;24.97;;;1.77;;
2772;SDS011;1394;47.044;15.744;2023-09-08T02:44:35;24.00;;;1.67;;
2772;SDS011;1394;47.044;15.744;2023-09-08T02:47:02;24.40;;;1.90;;
2772;SDS011;1394;47.044;15.744;2023-09-08T02:49:34;24.63;;;2.17;;
2772;SDS011;1394;47.044;15.744;2023-09-08T02:52:03;24.70;;;2.30;;
2772;SDS011;1394;47.044;15.744;2023-09-08T02:54:39;25.10;;;1.90;;
2772;SDS011;1394;47.044;15.744;2023-09-08T02:57:15;24.47;;;1.90;;
2772;SDS011;1394;47.044;15.744;2023-09-08T02:59:42;24.77;;;2.17;;
2772;SDS011;1394;47.044;15.744;2023-09-08T03:02:10;24.83;;;1.90;;
2772;SDS011;1394;47.044;15.744;2023-09-08T03:04:38;24.60;;;2.00;;
2772;SDS011;1394;47.044;15.744;2023-09-08T03:07:07;26.40;;;1.87;;
2772;SDS011;1394;47.044;15.744;2023-09-08T03:09:34;24.60;;;2.10;;
2772;SDS011;1394;47.044;15.744;2023-09-08T03:12:01;24.77;;;1.90;;
2772;SDS011;1394;47.044;15.744;2023-09-08T03:14:29;24.87;;;2.37;;
2772;SDS011;1394;47.044;15.744;2023-09-08T03:16:56;24.67;;;2.00;;
2772;SDS011;1394;47.044;15.744;2023-09-08T03:19:25;24.50;;;2.10;;
2772;SDS011;1394;47.044;15.744;2023-09-08T03:21:52;25.30;;;2.27;;
2772;SDS011;1394;47.044;15.744;2023-09-08T03:24:20;24.60;;;2.23;;
2772;SDS011;1394;47.044;15.744;2023-09-08T03:26:49;24.40;;;2.20;;
2772;SDS011;1394;47.044;15.744;2023-09-08T03:29:16;24.70;;;2.10;;
2772;SDS011;1394;47.044;15.744;2023-09-08T03:31:45;24.60;;;2.10;;
2772;SDS011;1394;47.044;15.744;2023-09-08T03:34:15;24.30;;;1.93;;
2772;SDS011;1394;47.044;15.744;2023-09-08T03:36:45;24.30;;;2.10;;
2772;SDS011;1394;47.044;15.744;2023-09-08T03:39:15;24.53;;;2.07;;
2772;SDS011;1394;47.044;15.744;2023-09-08T03:41:46;24.50;;;1.90;;
2772;SDS011;1394;47.044;15.744;2023-09-08T03:44:13;24.47;;;1.80;;
2772;SDS011;1394;47.044;15.744;2023-09-08T03:46:40;24.53;;;1.97;;
2772;SDS011;1394;47.044;15.744;2023-09-08T03:49:09;24.97;;;2.40;;
2772;SDS011;1394;47.044;15.744;2023-09-08T03:51:40;24.50;;;1.70;;
2772;SDS011;1394;47.044;15.744;2023-09-08T03:54:08;24.40;;;1.80;;
2772;SDS011;1394;47.044;15.744;2023-09-08T03:56:39;25.57;;;2.10;;
2772;SDS011;1394;47.044;15.744;2023-09-08T03:59:07;24.60;;;1.90;;
2772;SDS011;1394;47.044;15.744;2023-09-08T04:01:35;24.47;;;1.97;;
2772;SDS011;1394;47.044;15.744;2023-09-08T04:04:04;24.30;;;1.70;;
2772;SDS011;1394;47.044;15.744;2023-09-08T04:06:32;24.50;;;2.13;;
2772;SDS011;1394;47.044;15.744;2023-09-08T04:08:59;24.87;;;2.03;;
2772;SDS011;1394;47.044;15.744;2023-09-08T04:11:26;27.60;;;2.10;;
2772;SDS011;1394;47.044;15.744;2023-09-08T04:13:55;24.60;;;2.00;;
2772;SDS011;1394;47.044;15.744;2023-09-08T04:16:26;24.10;;;1.77;;
2772;SDS011;1394;47.044;15.744;2023-09-08T04:18:55;25.67;;;2.43;;
2772;SDS011;1394;47.044;15.744;2023-09-08T04:21:22;25.27;;;2.37;;
2772;SDS011;1394;47.044;15.744;2023-09-08T04:23:49;24.93;;;2.47;;
2772;SDS011;1394;47.044;15.744;2023-09-08T04:26:16;24.97;;;2.60;;
2772;SDS011;1394;47.044;15.744;2023-09-08T04:28:46;25.00;;;2.40;;
2772;SDS011;1394;47.044;15.744;2023-09-08T04:31:15;25.33;;;2.90;;
2772;SDS011;1394;47.044;15.744;2023-09-08T04:33:48;24.93;;;2.67;;
2772;SDS011;1394;47.044;15.744;2023-09-08T04:36:15;25.77;;;2.60;;
2772;SDS011;1394;47.044;15.744;2023-09-08T04:38:42;24.47;;;2.43;;
2772;SDS011;1394;47.044;15.744;2023-09-08T04:41:10;25.00;;;3.00;;
2772;SDS011;1394;47.044;15.744;2023-09-08T04:43:37;24.67;;;2.40;;
2772;SDS011;1394;47.044;15.744;2023-09-08T04:46:05;24.80;;;2.70;;
2772;SDS011;1394;47.044;15.744;2023-09-08T04:48:33;25.07;;;2.77;;
2772;SDS011;1394;47.044;15.744;2023-09-08T04:51:02;26.00;;;2.80;;
2772;SDS011;1394;47.044;15.744;2023-09-08T04:53:29;24.83;;;2.53;;
2772;SDS011;1394;47.044;15.744;2023-09-08T04:55:58;24.20;;;2.00;;
2772;SDS011;1394;47.044;15.744;2023-09-08T04:58:27;25.00;;;2.47;;
2772;SDS011;1394;47.044;15.744;2023-09-08T05:00:57;24.50;;;2.27;;
2772;SDS011;1394;47.044;15.744;2023-09-08T05:03:25;24.97;;;2.67;;
2772;SDS011;1394;47.044;15.744;2023-09-08T05:05:53;24.50;;;2.40;;
2772;SDS011;1394;47.044;15.744;2023-09-08T05:08:21;25.97;;;2.60;;
2772;SDS011;1394;47.044;15.744;2023-09-08T05:10:49;25.33;;;2.37;;
2772;SDS011;1394;47.044;15.744;2023-09-08T05:13:17;25.33;;;2.60;;
2772;SDS011;1394;47.044;15.744;2023-09-08T05:15:44;24.50;;;2.20;;
2772;SDS011;1394;47.044;15.744;2023-09-08T05:18:13;24.73;;;2.00;;
2772;SDS011;1394;47.044;15.744;2023-09-08T05:20:42;24.60;;;2.10;;
2772;SDS011;1394;47.044;15.744;2023-09-08T05:23:09;24.47;;;2.20;;
2772;SDS011;1394;47.044;15.744;2023-09-08T05:25:38;25.00;;;2.70;;
2772;SDS011;1394;47.044;15.744;2023-09-08T05:28:11;24.90;;;2.60;;
2772;SDS011;1394;47.044;15.744;2023-09-08T05:30:38;24.50;;;2.47;;
2772;SDS011;1394;47.044;15.744;2023-09-08T05:33:06;24.60;;;2.20;;
2772;SDS011;1394;47.044;15.744;2023-09-08T05:35:33;24.77;;;2.20;;
2772;SDS011;1394;47.044;15.744;2023-09-08T05:38:01;24.80;;;2.63;;
2772;SDS011;1394;47.044;15.744;2023-09-08T05:40:28;24.83;;;2.33;;
2772;SDS011;1394;47.044;15.744;2023-09-08T05:42:58;25.77;;;2.80;;
2772;SDS011;1394;47.044;15.744;2023-09-08T05:45:25;24.50;;;2.40;;
2772;SDS011;1394;47.044;15.744;2023-09-08T05:47:52;24.47;;;2.37;;
2772;SDS011;1394;47.044;15.744;2023-09-08T05:50:19;26.33;;;2.00;;
2772;SDS011;1394;47.044;15.744;2023-09-08T05:52:46;25.53;;;2.20;;
2772;SDS011;1394;47.044;15.744;2023-09-08T05:55:16;24.80;;;2.13;;
2772;SDS011;1394;47.044;15.744;2023-09-08T05:57:43;24.43;;;1.87;;
2772;SDS011;1394;47.044;15.744;2023-09-08T06:00:12;25.27;;;2.57;;
2772;SDS011;1394;47.044;15.744;2023-09-08T06:02:40;25.50;;;2.60;;
2772;SDS011;1394;47.044;15.744;2023-09-08T06:05:07;25.53;;;2.77;;
2772;SDS011;1394;47.044;15.744;2023-09-08T06:07:34;25.63;;;2.33;;
2772;SDS011;1394;47.044;15.744;2023-09-08T06:10:01;25.30;;;2.23;;
2772;SDS011;1394;47.044;15.744;2023-09-08T06:12:29;25.20;;;2.90;;
2772;SDS011;1394;47.044;15.744;2023-09-08T06:14:58;25.60;;;2.40;;
2772;SDS011;1394;47.044;15.744;2023-09-08T06:17:29;25.10;;;2.60;;
2772;SDS011;1394;47.044;15.744;2023-09-08T06:20:00;25.13;;;2.30;;
2772;SDS011;1394;47.044;15.744;2023-09-08T06:22:27;24.73;;;2.53;;
2772;SDS011;1394;47.044;15.744;2023-09-08T06:24:57;25.33;;;2.53;;
2772;SDS011;1394;47.044;15.744;2023-09-08T06:27:24;25.40;;;2.57;;
2772;SDS011;1394;47.044;15.744;2023-09-08T06:29:52;26.90;;;2.20;;
2772;SDS011;1394;47.044;15.744;2023-09-08T06:32:20;25.47;;;2.20;;
2772;SDS011;1394;47.044;15.744;2023-09-08T06:34:49;24.80;;;2.20;;
2772;SDS011;1394;47.044;15.744;2023-09-08T06:37:17;25.00;;;2.30;;
2772;SDS011;1394;47.044;15.744;2023-09-08T06:39:44;25.57;;;2.60;;
2772;SDS011;1394;47.044;15.744;2023-09-08T06:42:12;25.60;;;2.27;;
2772;SDS011;1394;47.044;15.744;2023-09-08T06:44:40;25.40;;;2.27;;
2772;SDS011;1394;47.044;15.744;2023-09-08T06:47:07;24.93;;;2.20;;
2772;SDS011;1394;47.044;15.744;2023-09-08T06:49:37;25.03;;;2.37;;
2772;SDS011;1394;47.044;15.744;2023-09-08T06:52:08;25.60;;;2.23;;
2772;SDS011;1394;47.044;15.744;2023-09-08T06:54:36;25.83;;;2.90;;
2772;SDS011;1394;47.044;15.744;2023-09-08T06:57:04;25.90;;;2.37;;
2772;SDS011;1394;47.044;15.744;2023-09-08T06:59:31;25.40;;;2.50;;
2772;SDS011;1394;47.044;15.744;2023-09-08T07:01:58;25.57;;;2.20;;
2772;SDS011;1394;47.044;15.744;2023-09-08T07:04:26;25.70;;;2.00;;
2772;SDS011;1394;47.044;15.744;2023-09-08T07:06:54;25.97;;;2.07;;
2772;SDS011;1394;47.044;15.744;2023-09-08T07:09:22;25.70;;;2.30;;
2772;SDS011;1394;47.044;15.744;2023-09-08T07:11:50;25.60;;;2.23;;
2772;SDS011;1394;47.044;15.744;2023-09-08T07:14:17;25.67;;;2.00;;
2772;SDS011;1394;47.044;15.744;2023-09-08T07:16:44;26.67;;;3.30;;
2772;SDS011;1394;47.044;15.744;2023-09-08T07:19:11;25.90;;;2.10;;
2772;SDS011;1394;47.044;15.744;2023-09-08T07:21:44;25.70;;;2.33;;
2772;SDS011;1394;47.044;15.744;2023-09-08T07:24:11;26.60;;;2.03;;
2772;SDS011;1394;47.044;15.744;2023-09-08T07:26:40;25.53;;;2.20;;
2772;SDS011;1394;47.044;15.744;2023-09-08T07:29:07;25.20;;;2.00;;
2772;SDS011;1394;47.044;15.744;2023-09-08T07:31:34;25.67;;;2.20;;
2772;SDS011;1394;47.044;15.744;2023-09-08T07:34:01;25.37;;;2.20;;
2772;SDS011;1394;47.044;15.744;2023-09-08T07:36:28;25.10;;;2.00;;
2772;SDS011;1394;47.044;15.744;2023-09-08T07:38:57;26.30;;;2.23;;
2772;SDS011;1394;47.044;15.744;2023-09-08T07:41:25;26.13;;;2.07;;
2772;SDS011;1394;47.044;15.744;2023-09-08T07:43:53;25.70;;;1.90;;
2772;SDS011;1394;47.044;15.744;2023-09-08T07:46:20;25.47;;;2.20;;
2772;SDS011;1394;47.044;15.744;2023-09-08T07:48:48;25.30;;;2.10;;
2772;SDS011;1394;47.044;15.744;2023-09-08T07:51:17;25.37;;;2.03;;
2772;SDS011;1394;47.044;15.744;2023-09-08T07:53:45;25.10;;;1.80;;
2772;SDS011;1394;47.044;15.744;2023-09-08T07:56:12;25.50;;;2.07;;
2772;SDS011;1394;47.044;15.744;2023-09-08T07:58:41;25.50;;;1.80;;
2772;SDS011;1394;47.044;15.744;2023-09-08T08:01:09;25.70;;;1.83;;
2772;SDS011;1394;47.044;15.744;2023-09-08T08:03:37;25.67;;;1.93;;
2772;SDS011;1394;47.044;15.744;2023-09-08T08:06:04;25.17;;;1.80;;
2772;SDS011;1394;47.044;15.744;2023-09-08T08:08:33;29.30;;;6.77;;
2772;SDS011;1394;47.044;15.744;2023-09-08T08:11:03;25.20;;;1.90;;
2772;SDS011;1394;47.044;15.744;2023-09-08T08:13:35;25.33;;;2.00;;
2772;SDS011;1394;47.044;15.744;2023-09-08T08:16:03;25.37;;;1.97;;
2772;SDS011;1394;47.044;15.744;2023-09-08T08:18:35;25.30;;;2.10;;
2772;SDS011;1394;47.044;15.744;2023-09-08T08:21:02;25.10;;;1.43;;
2772;SDS011;1394;47.044;15.744;2023-09-08T08:23:29;25.23;;;1.73;;
2772;SDS011;1394;47.044;15.744;2023-09-08T08:25:59;25.03;;;1.70;;
2772;SDS011;1394;47.044;15.744;2023-09-08T08:28:28;25.37;;;1.70;;
2772;SDS011;1394;47.044;15.744;2023-09-08T08:30:56;25.30;;;1.97;;
2772;SDS011;1394;47.044;15.744;2023-09-08T08:33:23;25.17;;;1.70;;
2772;SDS011;1394;47.044;15.744;2023-09-08T08:35:53;25.10;;;1.80;;
2772;SDS011;1394;47.044;15.744;2023-09-08T08:38:22;25.10;;;1.80;;
2772;SDS011;1394;47.044;15.744;2023-09-08T08:40:49;24.93;;;1.73;;
2772;SDS011;1394;47.044;15.744;2023-09-08T08:43:16;25.87;;;1.90;;
2772;SDS011;1394;47.044;15.744;2023-09-08T08:45:44;24.90;;;1.70;;
2772;SDS011;1394;47.044;15.744;2023-09-08T08:48:13;25.07;;;1.90;;
2772;SDS011;1394;47.044;15.744;2023-09-08T08:50:49;25.43;;;1.63;;
2772;SDS011;1394;47.044;15.744;2023-09-08T08:53:20;26.87;;;1.73;;
2772;SDS011;1394;47.044;15.744;2023-09-08T08:55:48;24.90;;;1.70;;
2772;SDS011;1394;47.044;15.744;2023-09-08T08:58:18;24.57;;;1.40;;
2772;SDS011;1394;47.044;15.744;2023-09-08T09:00:51;26.00;;;1.83;;
2772;SDS011;1394;47.044;15.744;2023-09-08T09:03:20;25.13;;;1.70;;
2772;SDS011;1394;47.044;15.744;2023-09-08T09:05:48;25.00;;;1.60;;
2772;SDS011;1394;47.044;15.744;2023-09-08T09:08:19;25.87;;;1.57;;
2772;SDS011;1394;47.044;15.744;2023-09-08T09:10:50;24.90;;;1.70;;
2772;SDS011;1394;47.044;15.744;2023-09-08T09:13:18;25.23;;;1.97;;
2772;SDS011;1394;47.044;15.744;2023-09-08T09:15:45;25.33;;;1.73;;
2772;SDS011;1394;47.044;15.744;2023-09-08T09:18:14;25.00;;;1.60;;
2772;SDS011;1394;47.044;15.744;2023-09-08T09:20:45;25.53;;;1.67;;
2772;SDS011;1394;47.044;15.744;2023-09-08T09:23:27;25.00;;;1.53;;
2772;SDS011;1394;47.044;15.744;2023-09-08T09:25:55;24.87;;;1.50;;
2772;SDS011;1394;47.044;15.744;2023-09-08T09:28:23;26.30;;;1.70;;
2772;SDS011;1394;47.044;15.744;2023-09-08T09:30:51;24.77;;;1.73;;
2772;SDS011;1394;47.044;15.744;2023-09-08T09:33:22;25.63;;;1.90;;
2772;SDS011;1394;47.044;15.744;2023-09-08T09:35:50;25.73;;;2.00;;
2772;SDS011;1394;47.044;15.744;2023-09-08T09:38:18;25.10;;;1.77;;
2772;SDS011;1394;47.044;15.744;2023-09-08T09:40:47;25.03;;;1.63;;
2772;SDS011;1394;47.044;15.744;2023-09-08T09:43:15;26.40;;;1.50;;
2772;SDS011;1394;47.044;15.744;2023-09-08T09:45:42;24.80;;;1.60;;
2772;SDS011;1394;47.044;15.744;2023-09-08T09:48:10;24.70;;;1.50;;
2772;SDS011;1394;47.044;15.744;2023-09-08T09:50:39;25.97;;;1.70;;
2772;SDS011;1394;47.044;15.744;2023-09-08T09:53:09;25.17;;;1.67;;
2772;SDS011;1394;47.044;15.744;2023-09-08T09:55:38;25.27;;;1.70;;
2772;SDS011;1394;47.044;15.744;2023-09-08T09:58:14;25.17;;;1.73;;
2772;SDS011;1394;47.044;15.744;2023-09-08T10:00:43;25.13;;;1.77;;
2772;SDS011;1394;47.044;15.744;2023-09-08T10:03:13;25.20;;;1.97;;
2772;SDS011;1394;47.044;15.744;2023-09-08T10:05:40;25.07;;;1.40;;
2772;SDS011;1394;47.044;15.744;2023-09-08T10:08:12;24.90;;;1.50;;
2772;SDS011;1394;47.044;15.744;2023-09-08T10:10:40;24.80;;;1.60;;
2772;SDS011;1394;47.044;15.744;2023-09-08T10:13:14;25.13;;;1.67;;
2772;SDS011;1394;47.044;15.744;2023-09-08T10:15:45;24.60;;;1.23;;
2772;SDS011;1394;47.044;15.744;2023-09-08T10:18:13;24.87;;;1.43;;
2772;SDS011;1394;47.044;15.744;2023-09-08T10:20:41;25.77;;;1.57;;
2772;SDS011;1394;47.044;15.744;2023-09-08T10:23:10;25.90;;;1.33;;
2772;SDS011;1394;47.044;15.744;2023-09-08T10:25:41;24.80;;;1.30;;
2772;SDS011;1394;47.044;15.744;2023-09-08T10:28:10;25.10;;;1.40;;
2772;SDS011;1394;47.044;15.744;2023-09-08T10:30:41;24.70;;;1.33;;
2772;SDS011;1394;47.044;15.744;2023-09-08T10:33:09;24.63;;;1.30;;
2772;SDS011;1394;47.044;15.744;2023-09-08T10:35:40;24.60;;;1.40;;
2772;SDS011;1394;47.044;15.744;2023-09-08T10:38:23;24.67;;;1.37;;
2772;SDS011;1394;47.044;15.744;2023-09-08T10:40:50;25.00;;;1.60;;
2772;SDS011;1394;47.044;15.744;2023-09-08T10:43:19;24.93;;;1.30;;
2772;SDS011;1394;47.044;15.744;2023-09-08T10:45:50;25.00;;;1.60;;
2772;SDS011;1394;47.044;15.744;2023-09-08T10:48:19;25.80;;;1.47;;
2772;SDS011;1394;47.044;15.744;2023-09-08T10:50:47;24.60;;;1.30;;
2772;SDS011;1394;47.044;15.744;2023-09-08T10:53:20;25.00;;;1.60;;
2772;SDS011;1394;47.044;15.744;2023-09-08T10:55:48;24.50;;;1.40;;
2772;SDS011;1394;47.044;15.744;2023-09-08T10:58:18;24.60;;;1.13;;
2772;SDS011;1394;47.044;15.744;2023-09-08T11:00:46;24.90;;;1.40;;
2772;SDS011;1394;47.044;15.744;2023-09-08T11:03:15;24.90;;;1.27;;
2772;SDS011;1394;47.044;15.744;2023-09-08T11:05:53;25.07;;;1.30;;
2772;SDS011;1394;47.044;15.744;2023-09-08T11:08:21;24.83;;;1.30;;
2772;SDS011;1394;47.044;15.744;2023-09-08T11:10:50;25.23;;;1.30;;
2772;SDS011;1394;47.044;15.744;2023-09-08T11:13:19;24.40;;;1.50;;
2772;SDS011;1394;47.044;15.744;2023-09-08T11:15:47;24.73;;;1.27;;
2772;SDS011;1394;47.044;15.744;2023-09-08T11:18:15;24.30;;;1.30;;
2772;SDS011;1394;47.044;15.744;2023-09-08T11:20:44;25.07;;;1.27;;
2772;SDS011;1394;47.044;15.744;2023-09-08T11:23:12;24.30;;;1.20;;
2772;SDS011;1394;47.044;15.744;2023-09-08T11:25:40;24.83;;;1.20;;
2772;SDS011;1394;47.044;15.744;2023-09-08T11:28:08;25.20;;;1.30;;
2772;SDS011;1394;47.044;15.744;2023-09-08T11:30:35;24.30;;;1.20;;
2772;SDS011;1394;47.044;15.744;2023-09-08T11:33:04;24.37;;;1.40;;
2772;SDS011;1394;47.044;15.744;2023-09-08T11:35:35;24.30;;;1.40;;
2772;SDS011;1394;47.044;15.744;2023-09-08T11:38:04;25.27;;;1.30;;
2772;SDS011;1394;47.044;15.744;2023-09-08T11:40:31;26.03;;;1.53;;
2772;SDS011;1394;47.044;15.744;2023-09-08T11:42:59;24.00;;;1.17;;
2772;SDS011;1394;47.044;15.744;2023-09-08T11:45:27;24.00;;;1.27;;
2772;SDS011;1394;47.044;15.744;2023-09-08T11:47:54;25.10;;;1.30;;
2772;SDS011;1394;47.044;15.744;2023-09-08T11:50:21;24.10;;;1.23;;
2772;SDS011;1394;47.044;15.744;2023-09-08T11:52:52;24.20;;;1.40;;
2772;SDS011;1394;47.044;15.744;2023-09-08T11:55:22;24.97;;;1.23;;
2772;SDS011;1394;47.044;15.744;2023-09-08T11:57:49;24.10;;;1.33;;
2772;SDS011;1394;47.044;15.744;2023-09-08T12:00:20;24.77;;;1.43;;
2772;SDS011;1394;47.044;15.744;2023-09-08T12:02:48;24.80;;;1.40;;
2772;SDS011;1394;47.044;15.744;2023-09-08T12:05:20;24.63;;;1.40;;
2772;SDS011;1394;47.044;15.744;2023-09-08T12:07:47;24.20;;;1.20;;
2772;SDS011;1394;47.044;15.744;2023-09-08T12:10:16;24.73;;;1.50;;
2772;SDS011;1394;47.044;15.744;2023-09-08T12:12:44;24.87;;;1.37;;
2772;SDS011;1394;47.044;15.744;2023-09-08T12:15:12;24.03;;;1.23;;
2772;SDS011;1394;47.044;15.744;2023-09-08T12:17:56;25.20;;;1.20;;
2772;SDS011;1394;47.044;15.744;2023-09-08T12:20:24;23.90;;;1.23;;
2772;SDS011;1394;47.044;15.744;2023-09-08T12:22:51;24.30;;;1.20;;
2772;SDS011;1394;47.044;15.744;2023-09-08T12:25:22;24.47;;;1.20;;
2772;SDS011;1394;47.044;15.744;2023-09-08T12:27:49;24.77;;;1.23;;
2772;SDS011;1394;47.044;15.744;2023-09-08T12:30:17;23.90;;;1.10;;
2772;SDS011;1394;47.044;15.744;2023-09-08T12:32:45;24.10;;;1.30;;
2772;SDS011;1394;47.044;15.744;2023-09-08T12:35:19;24.27;;;1.20;;
2772;SDS011;1394;47.044;15.744;2023-09-08T12:37:46;24.10;;;1.33;;
2772;SDS011;1394;47.044;15.744;2023-09-08T12:40:14;23.90;;;1.20;;
2772;SDS011;1394;47.044;15.744;2023-09-08T12:42:42;24.83;;;1.50;;
2772;SDS011;1394;47.044;15.744;2023-09-08T12:45:10;24.10;;;1.10;;
2772;SDS011;1394;47.044;15.744;2023-09-08T12:47:37;24.10;;;1.20;;
2772;SDS011;1394;47.044;15.744;2023-09-08T12:50:04;24.10;;;1.20;;
2772;SDS011;1394;47.044;15.744;2023-09-08T12:52:32;24.00;;;1.23;;
2772;SDS011;1394;47.044;15.744;2023-09-08T12:55:00;27.40;;;1.60;;
2772;SDS011;1394;47.044;15.744;2023-09-08T12:57:27;24.80;;;1.10;;
2772;SDS011;1394;47.044;15.744;2023-09-08T12:59:58;23.80;;;1.00;;
2772;SDS011;1394;47.044;15.744;2023-09-08T13:02:25;23.77;;;1.30;;
2772;SDS011;1394;47.044;15.744;2023-09-08T13:04:52;23.97;;;1.27;;
2772;SDS011;1394;47.044;15.744;2023-09-08T13:07:20;23.70;;;1.35;;
2772;SDS011;1394;47.044;15.744;2023-09-08T13:09:48;25.30;;;1.05;;
2772;SDS011;1394;47.044;15.744;2023-09-08T13:12:15;23.30;;;1.08;;
2772;SDS011;1394;47.044;15.744;2023-09-08T13:14:42;23.25;;;1.10;;
2772;SDS011;1394;47.044;15.744;2023-09-08T13:17:12;24.05;;;1.20;;
2772;SDS011;1394;47.044;15.744;2023-09-08T13:19:41;23.47;;;1.10;;
2772;SDS011;1394;47.044;15.744;2023-09-08T13:22:11;23.98;;;1.20;;
2772;SDS011;1394;47.044;15.744;2023-09-08T13:24:40;23.70;;;1.33;;
2772;SDS011;1394;47.044;15.744;2023-09-08T13:27:08;24.03;;;1.10;;
2772;SDS011;1394;47.044;15.744;2023-09-08T13:29:36;23.70;;;1.23;;
2772;SDS011;1394;47.044;15.744;2023-09-08T13:32:05;24.00;;;1.27;;
2772;SDS011;1394;47.044;15.744;2023-09-08T13:34:36;24.43;;;1.53;;
2772;SDS011;1394;47.044;15.744;2023-09-08T13:37:05;23.50;;;1.20;;
2772;SDS011;1394;47.044;15.744;2023-09-08T13:39:33;23.57;;;1.10;;
2772;SDS011;1394;47.044;15.744;2023-09-08T13:42:01;23.65;;;1.05;;
2772;SDS011;1394;47.044;15.744;2023-09-08T13:44:28;23.83;;;1.23;;
2772;SDS011;1394;47.044;15.744;2023-09-08T13:46:55;24.65;;;1.13;;
2772;SDS011;1394;47.044;15.744;2023-09-08T13:49:23;23.75;;;1.20;;
2772;SDS011;1394;47.044;15.744;2023-09-08T13:51:53;24.05;;;1.20;;
2772;SDS011;1394;47.044;15.744;2023-09-08T13:54:23;24.13;;;1.20;;
2772;SDS011;1394;47.044;15.744;2023-09-08T13:56:57;23.73;;;1.10;;
2772;SDS011;1394;47.044;15.744;2023-09-08T13:59:26;23.67;;;1.17;;
2772;SDS011;1394;47.044;15.744;2023-09-08T14:01:56;24.40;;;1.23;;
2772;SDS011;1394;47.044;15.744;2023-09-08T14:04:24;23.80;;;1.17;;
2772;SDS011;1394;47.044;15.744;2023-09-08T14:06:55;23.35;;;1.10;;
2772;SDS011;1394;47.044;15.744;2023-09-08T14:09:22;23.88;;;1.10;;
2772;SDS011;1394;47.044;15.744;2023-09-08T14:11:51;23.42;;;1.13;;
2772;SDS011;1394;47.044;15.744;2023-09-08T14:14:18;23.35;;;1.10;;
2772;SDS011;1394;47.044;15.744;2023-09-08T14:16:46;23.77;;;1.63;;
2772;SDS011;1394;47.044;15.744;2023-09-08T14:19:13;24.00;;;1.30;;
2772;SDS011;1394;47.044;15.744;2023-09-08T14:21:42;23.87;;;1.20;;
2772;SDS011;1394;47.044;15.744;2023-09-08T14:24:10;23.70;;;1.00;;
2772;SDS011;1394;47.044;15.744;2023-09-08T14:26:37;24.47;;;1.20;;
2772;SDS011;1394;47.044;15.744;2023-09-08T14:29:06;25.03;;;1.20;;
2772;SDS011;1394;47.044;15.744;2023-09-08T14:31:33;23.55;;;1.10;;
2772;SDS011;1394;47.044;15.744;2023-09-08T14:34:00;23.60;;;1.17;;
2772;SDS011;1394;47.044;15.744;2023-09-08T14:36:28;23.45;;;1.10;;
2772;SDS011;1394;47.044;15.744;2023-09-08T14:38:56;23.63;;;1.02;;
2772;SDS011;1394;47.044;15.744;2023-09-08T14:41:27;23.55;;;1.20;;
2772;SDS011;1394;47.044;15.744;2023-09-08T14:43:56;23.90;;;1.00;;
2772;SDS011;1394;47.044;15.744;2023-09-08T14:46:23;24.15;;;1.20;;
2772;SDS011;1394;47.044;15.744;2023-09-08T14:48:50;23.60;;;1.20;;
2772;SDS011;1394;47.044;15.744;2023-09-08T14:51:18;24.00;;;1.23;;
2772;SDS011;1394;47.044;15.744;2023-09-08T14:53:46;24.23;;;1.00;;
2772;SDS011;1394;47.044;15.744;2023-09-08T14:56:13;23.45;;;1.17;;